Time;durP1;ratioP1;P1;durP2;ratioP2;P2;SDS_P1;SDS_P2;PMS_P1;PMS_P2;Temp;Humidity;BMP_temperature;BMP_pressure;BME280_temperature;BME280_humidity;BME280_pressure;Samples;Min_cycle;Max_cycle;Signal;HPM_P1;HPM_P2
2022/01/08 00:00:15;;;;;;;6.80;3.05;;;;;;;;;;5019536;28;20116;-89
2022/01/08 00:02:42;;;;;;;6.75;2.55;;;;;;;;;;5009219;28;20052;-89
2022/01/08 00:05:09;;;;;;;8.40;2.95;;;;;;;;;;5010477;28;20111;-90
2022/01/08 00:07:35;;;;;;;10.32;3.35;;;;;;;;;;4996802;28;20037;-88
2022/01/08 00:10:01;;;;;;;7.80;3.10;;;;;;;;;;5012082;28;20618;-88
2022/01/08 00:12:28;;;;;;;13.73;3.78;;;;;;;;;;5010633;28;20053;-91
2022/01/08 00:14:54;;;;;;;6.82;2.67;;;;;;;;;;5012534;28;20033;-89
2022/01/08 00:17:22;;;;;;;8.13;2.05;;;;;;;;;;5031142;28;20425;-86
2022/01/08 00:19:49;;;;;;;11.25;2.85;;;;;;;;;;5032322;28;20083;-88
2022/01/08 00:22:15;;;;;;;8.50;2.90;;;;;;;;;;5031455;28;20052;-85
2022/01/08 00:24:41;;;;;;;10.20;2.60;;;;;;;;;;5031580;28;20113;-84
2022/01/08 00:27:07;;;;;;;7.10;2.78;;;;;;;;;;5023568;28;20061;-82
2022/01/08 00:29:33;;;;;;;9.63;2.85;;;;;;;;;;4997683;28;20045;-88
2022/01/08 00:31:59;;;;;;;7.50;2.38;;;;;;;;;;5028792;28;20049;-87
2022/01/08 00:34:25;;;;;;;8.32;2.83;;;;;;;;;;5027619;28;20045;-91
2022/01/08 00:36:51;;;;;;;8.10;2.45;;;;;;;;;;5028212;28;20038;-90
2022/01/08 00:39:17;;;;;;;9.77;3.50;;;;;;;;;;5011407;28;20041;-89
2022/01/08 00:41:43;;;;;;;7.63;2.85;;;;;;;;;;5027052;28;20473;-88
2022/01/08 00:44:09;;;;;;;6.75;3.03;;;;;;;;;;5028382;28;20053;-86
2022/01/08 00:46:35;;;;;;;6.95;2.42;;;;;;;;;;5026107;28;20057;-90
2022/01/08 00:49:03;;;;;;;11.25;3.40;;;;;;;;;;5027407;28;20453;-86
2022/01/08 00:51:29;;;;;;;5.63;2.50;;;;;;;;;;5026776;28;20042;-82
2022/01/08 00:53:55;;;;;;;10.65;3.58;;;;;;;;;;5031268;28;20385;-86
2022/01/08 00:56:21;;;;;;;12.20;3.42;;;;;;;;;;5031616;28;20114;-91
2022/01/08 00:58:47;;;;;;;8.05;3.13;;;;;;;;;;5027511;28;20886;-89
2022/01/08 01:01:13;;;;;;;11.00;3.40;;;;;;;;;;5034990;28;20466;-88
2022/01/08 01:03:39;;;;;;;12.40;3.40;;;;;;;;;;5029860;28;20055;-89
2022/01/08 01:06:06;;;;;;;8.23;3.75;;;;;;;;;;5028259;28;20493;-88
2022/01/08 01:08:33;;;;;;;11.07;3.40;;;;;;;;;;5009911;28;20091;-86
2022/01/08 01:10:59;;;;;;;5.05;3.15;;;;;;;;;;5027984;28;20070;-88
2022/01/08 01:13:25;;;;;;;7.78;2.90;;;;;;;;;;5023346;28;20042;-86
2022/01/08 01:15:51;;;;;;;8.55;2.40;;;;;;;;;;5017452;28;20088;-88
2022/01/08 01:18:17;;;;;;;11.00;3.58;;;;;;;;;;5009471;28;20041;-89
2022/01/08 01:20:43;;;;;;;8.90;3.00;;;;;;;;;;5004505;28;20089;-87
2022/01/08 01:23:13;;;;;;;7.25;2.58;;;;;;;;;;5025094;28;20060;-89
2022/01/08 01:25:49;;;;;;;5.43;2.75;;;;;;;;;;5027132;28;20057;-89
2022/01/08 01:49:04;;;;;;;3.67;2.40;;;;;;;;;;5024220;28;20045;-85
2022/01/08 01:51:30;;;;;;;10.52;2.90;;;;;;;;;;5007744;28;20045;-84
2022/01/08 01:53:56;;;;;;;7.60;2.85;;;;;;;;;;5028029;28;20065;-90
2022/01/08 01:56:23;;;;;;;3.97;2.80;;;;;;;;;;5026400;28;20040;-89
2022/01/08 01:58:49;;;;;;;10.27;3.60;;;;;;;;;;5023776;28;20480;-85
2022/01/08 02:01:16;;;;;;;8.35;2.80;;;;;;;;;;5024245;28;20045;-90
2022/01/08 02:03:42;;;;;;;6.50;2.35;;;;;;;;;;5009798;28;20053;-89
2022/01/08 02:06:09;;;;;;;9.55;3.88;;;;;;;;;;5010635;28;20105;-91
2022/01/08 02:08:35;;;;;;;8.43;4.05;;;;;;;;;;5025563;28;20049;-90
2022/01/08 02:11:02;;;;;;;12.10;4.88;;;;;;;;;;4992656;28;20049;-88
2022/01/08 02:13:28;;;;;;;10.43;3.90;;;;;;;;;;5016038;28;20049;-88
2022/01/08 02:15:56;;;;;;;7.25;3.47;;;;;;;;;;5004286;28;20049;-88
2022/01/08 02:18:25;;;;;;;10.55;4.32;;;;;;;;;;4988939;28;20097;-87
2022/01/08 02:20:52;;;;;;;9.98;2.95;;;;;;;;;;5026359;28;20046;-89
2022/01/08 02:23:18;;;;;;;9.50;4.53;;;;;;;;;;5027379;28;20511;-91
2022/01/08 02:25:44;;;;;;;12.45;5.05;;;;;;;;;;5024928;28;20056;-91
2022/01/08 02:28:11;;;;;;;9.23;4.82;;;;;;;;;;5028332;28;20057;-88
2022/01/08 02:30:37;;;;;;;9.10;3.92;;;;;;;;;;5026303;28;20099;-92
2022/01/08 02:33:03;;;;;;;13.27;6.05;;;;;;;;;;5010183;28;20451;-86
2022/01/08 02:35:29;;;;;;;9.85;5.10;;;;;;;;;;5023707;28;20122;-89
2022/01/08 02:37:55;;;;;;;20.25;5.32;;;;;;;;;;5026881;28;20080;-87
2022/01/08 02:40:23;;;;;;;14.88;5.35;;;;;;;;;;5022625;28;20410;-89
2022/01/08 02:42:54;;;;;;;11.73;5.90;;;;;;;;;;5026801;28;20092;-91
2022/01/08 02:45:21;;;;;;;11.38;4.63;;;;;;;;;;5027603;28;20524;-85
2022/01/08 02:47:48;;;;;;;8.80;4.30;;;;;;;;;;4992049;28;20390;-88
2022/01/08 02:50:14;;;;;;;10.32;4.38;;;;;;;;;;5010067;28;20038;-86
2022/01/08 02:52:41;;;;;;;7.00;4.53;;;;;;;;;;5008876;28;20576;-90
2022/01/08 02:55:07;;;;;;;12.77;5.40;;;;;;;;;;5026453;28;20591;-89
2022/01/08 02:57:33;;;;;;;11.07;4.78;;;;;;;;;;5027491;28;20418;-89
2022/01/08 02:59:59;;;;;;;7.28;4.65;;;;;;;;;;5026584;28;20072;-89
2022/01/08 03:02:25;;;;;;;12.23;3.85;;;;;;;;;;5028141;28;20045;-87
2022/01/08 03:04:54;;;;;;;6.32;4.20;;;;;;;;;;5028193;28;20113;-88
2022/01/08 03:07:20;;;;;;;12.30;5.53;;;;;;;;;;5029427;28;20042;-88
2022/01/08 03:09:55;;;;;;;12.27;4.50;;;;;;;;;;5027051;28;20049;-89
2022/01/08 03:12:21;;;;;;;11.20;4.47;;;;;;;;;;5030491;28;20060;-90
2022/01/08 03:14:47;;;;;;;12.48;4.63;;;;;;;;;;5030859;28;20046;-87
2022/01/08 03:17:13;;;;;;;8.30;3.80;;;;;;;;;;5029496;28;20131;-86
2022/01/08 03:19:40;;;;;;;7.55;3.78;;;;;;;;;;5030844;28;20046;-89
2022/01/08 03:22:06;;;;;;;7.82;4.10;;;;;;;;;;5012608;28;20457;-88
2022/01/08 03:24:33;;;;;;;9.60;4.88;;;;;;;;;;5030897;28;20520;-87
2022/01/08 03:26:59;;;;;;;14.40;5.10;;;;;;;;;;5013886;28;20061;-89
2022/01/08 03:29:26;;;;;;;12.88;4.72;;;;;;;;;;5000907;28;20049;-88
2022/01/08 03:31:52;;;;;;;9.95;4.85;;;;;;;;;;5029974;28;20049;-90
2022/01/08 03:34:18;;;;;;;9.45;4.60;;;;;;;;;;5030177;28;20033;-87
2022/01/08 03:36:44;;;;;;;7.00;3.30;;;;;;;;;;5030678;28;20157;-90
2022/01/08 03:39:10;;;;;;;15.90;5.10;;;;;;;;;;5028637;28;20493;-88
2022/01/08 03:41:36;;;;;;;8.95;5.00;;;;;;;;;;5029924;28;20046;-86
2022/01/08 03:44:02;;;;;;;13.10;4.95;;;;;;;;;;5028419;28;20047;-89
2022/01/08 03:46:34;;;;;;;8.10;4.85;;;;;;;;;;5012706;28;20092;-85
2022/01/08 03:51:30;;;;;;;10.95;4.35;;;;;;;;;;5008639;28;20107;-83
2022/01/08 03:53:57;;;;;;;7.55;4.45;;;;;;;;;;5027511;28;20053;-87
2022/01/08 03:56:23;;;;;;;11.95;4.90;;;;;;;;;;5028707;28;20838;-88
2022/01/08 03:58:49;;;;;;;9.55;4.63;;;;;;;;;;5011921;28;20088;-89
2022/01/08 04:01:15;;;;;;;14.48;4.90;;;;;;;;;;5027368;28;20084;-85
2022/01/08 04:03:41;;;;;;;8.23;3.70;;;;;;;;;;5011684;28;20037;-89
2022/01/08 04:06:07;;;;;;;7.90;3.70;;;;;;;;;;5027215;28;20568;-89
2022/01/08 04:08:34;;;;;;;9.00;3.97;;;;;;;;;;5011794;28;20497;-82
2022/01/08 04:11:01;;;;;;;9.32;3.47;;;;;;;;;;5012014;28;20046;-90
2022/01/08 04:13:30;;;;;;;8.73;4.10;;;;;;;;;;5011413;28;20049;-87
2022/01/08 04:16:06;;;;;;;6.72;3.00;;;;;;;;;;5029987;28;20060;-87
2022/01/08 04:18:32;;;;;;;10.82;3.60;;;;;;;;;;5009590;28;20111;-86
2022/01/08 04:23:42;;;;;;;14.25;3.80;;;;;;;;;;5008895;28;20080;-88
2022/01/08 04:26:08;;;;;;;9.90;3.88;;;;;;;;;;5027254;28;20041;-88
2022/01/08 04:28:34;;;;;;;7.32;3.05;;;;;;;;;;5027353;28;20061;-90
2022/01/08 04:31:00;;;;;;;7.40;2.78;;;;;;;;;;5027837;28;20057;-87
2022/01/08 04:33:27;;;;;;;7.53;2.83;;;;;;;;;;5010915;28;20103;-87
2022/01/08 04:35:55;;;;;;;11.43;2.50;;;;;;;;;;5026581;28;20057;-88
2022/01/08 04:38:21;;;;;;;4.60;1.73;;;;;;;;;;5016281;28;20163;-86
2022/01/08 04:40:47;;;;;;;9.30;2.55;;;;;;;;;;5027965;28;20041;-87
2022/01/08 04:43:14;;;;;;;4.43;2.25;;;;;;;;;;5011187;28;20049;-86
2022/01/08 04:45:40;;;;;;;7.75;2.60;;;;;;;;;;5028686;28;20084;-86
2022/01/08 04:48:07;;;;;;;8.52;2.92;;;;;;;;;;5026575;28;20130;-89
2022/01/08 04:50:33;;;;;;;5.40;2.53;;;;;;;;;;5029345;28;20052;-89
2022/01/08 04:52:59;;;;;;;5.85;2.38;;;;;;;;;;4993388;28;20375;-82
2022/01/08 04:55:25;;;;;;;7.53;2.88;;;;;;;;;;5027633;28;20523;-88
2022/01/08 04:57:52;;;;;;;11.48;2.60;;;;;;;;;;5025595;28;20072;-88
2022/01/08 05:00:20;;;;;;;10.68;2.00;;;;;;;;;;5010121;28;20034;-87
2022/01/08 05:02:46;;;;;;;7.90;1.92;;;;;;;;;;5027970;28;20081;-90
2022/01/08 05:05:12;;;;;;;6.78;2.40;;;;;;;;;;5028051;28;20100;-86
2022/01/08 05:07:38;;;;;;;10.85;2.20;;;;;;;;;;5010368;28;20045;-88
2022/01/08 05:10:05;;;;;;;6.15;2.40;;;;;;;;;;5009019;28;20099;-83
2022/01/08 05:12:31;;;;;;;4.45;2.28;;;;;;;;;;5008597;28;20054;-86
2022/01/08 05:14:57;;;;;;;10.88;2.53;;;;;;;;;;5014574;28;20061;-86
2022/01/08 05:17:35;;;;;;;6.50;2.22;;;;;;;;;;5027656;28;20045;-87
2022/01/08 05:20:05;;;;;;;8.50;2.10;;;;;;;;;;5027825;28;20088;-87
2022/01/08 05:22:49;;;;;;;4.65;1.95;;;;;;;;;;5026053;28;20045;-88
2022/01/08 05:25:19;;;;;;;9.25;2.10;;;;;;;;;;5028087;28;20072;-85
2022/01/08 05:27:46;;;;;;;15.65;3.70;;;;;;;;;;5025356;28;20505;-85
2022/01/08 05:30:14;;;;;;;8.20;2.60;;;;;;;;;;5009300;28;20254;-85
2022/01/08 05:32:40;;;;;;;9.38;2.85;;;;;;;;;;5006930;28;20449;-87
2022/01/08 05:35:06;;;;;;;8.68;3.13;;;;;;;;;;4992420;28;20065;-88
2022/01/08 05:37:32;;;;;;;8.73;2.88;;;;;;;;;;5027919;28;20130;-87
2022/01/08 05:39:58;;;;;;;11.07;2.22;;;;;;;;;;5026962;28;20049;-85
2022/01/08 05:42:24;;;;;;;7.70;2.72;;;;;;;;;;5028672;28;20037;-88
2022/01/08 05:44:50;;;;;;;10.90;2.80;;;;;;;;;;5027317;28;20081;-89
2022/01/08 05:47:16;;;;;;;7.63;2.30;;;;;;;;;;5027457;28;20588;-87
2022/01/08 05:49:42;;;;;;;7.75;2.03;;;;;;;;;;5026669;28;20049;-84
2022/01/08 05:52:09;;;;;;;6.70;2.20;;;;;;;;;;5009985;28;20052;-87
2022/01/08 05:54:35;;;;;;;6.45;1.98;;;;;;;;;;5025700;28;20405;-84
2022/01/08 05:57:01;;;;;;;11.93;2.55;;;;;;;;;;5027048;28;20046;-85
2022/01/08 05:59:27;;;;;;;11.63;2.50;;;;;;;;;;5027109;28;20043;-87
2022/01/08 06:01:54;;;;;;;6.28;2.30;;;;;;;;;;5024408;28;20620;-87
2022/01/08 06:04:20;;;;;;;12.32;2.28;;;;;;;;;;5009387;28;20064;-86
2022/01/08 06:06:46;;;;;;;10.63;2.38;;;;;;;;;;5025939;28;20506;-88
2022/01/08 06:09:12;;;;;;;5.95;2.13;;;;;;;;;;5009470;28;20053;-86
2022/01/08 06:11:38;;;;;;;8.38;2.28;;;;;;;;;;5022404;28;20501;-86
2022/01/08 06:14:05;;;;;;;11.02;1.90;;;;;;;;;;5030504;28;20065;-82
2022/01/08 06:16:34;;;;;;;11.48;1.95;;;;;;;;;;5028269;28;20056;-86
2022/01/08 06:19:01;;;;;;;6.85;2.47;;;;;;;;;;5028708;28;20064;-84
2022/01/08 06:21:27;;;;;;;7.05;2.08;;;;;;;;;;5023888;28;20063;-82
2022/01/08 06:23:53;;;;;;;8.85;2.00;;;;;;;;;;5025813;28;20064;-86
2022/01/08 06:26:19;;;;;;;3.55;1.67;;;;;;;;;;5026322;28;20049;-85
2022/01/08 06:28:45;;;;;;;9.25;1.80;;;;;;;;;;5026229;28;20088;-85
2022/01/08 06:31:11;;;;;;;8.07;2.45;;;;;;;;;;5026988;28;20048;-87
2022/01/08 06:33:37;;;;;;;11.60;2.70;;;;;;;;;;5025119;28;20132;-87
2022/01/08 06:36:03;;;;;;;6.13;2.10;;;;;;;;;;5025178;28;20045;-82
2022/01/08 06:38:30;;;;;;;7.70;2.53;;;;;;;;;;5008469;28;20423;-87
2022/01/08 06:40:56;;;;;;;8.75;2.17;;;;;;;;;;5023197;28;20501;-86
2022/01/08 06:43:22;;;;;;;10.38;2.88;;;;;;;;;;5008830;28;20145;-85
2022/01/08 06:45:48;;;;;;;8.90;2.30;;;;;;;;;;5008094;28;20050;-86
2022/01/08 06:48:14;;;;;;;10.57;2.45;;;;;;;;;;5025771;28;20053;-83
2022/01/08 06:50:40;;;;;;;6.40;2.60;;;;;;;;;;5026535;28;20069;-85
2022/01/08 06:53:06;;;;;;;9.27;3.17;;;;;;;;;;5024043;28;20049;-88
2022/01/08 06:55:32;;;;;;;6.90;3.10;;;;;;;;;;5008492;28;20053;-84
2022/01/08 06:57:59;;;;;;;10.38;2.80;;;;;;;;;;5026265;28;20050;-89
2022/01/08 07:00:25;;;;;;;8.98;3.13;;;;;;;;;;4994097;28;20524;-83
2022/01/08 07:02:51;;;;;;;13.45;3.08;;;;;;;;;;5026400;28;20111;-87
2022/01/08 07:05:18;;;;;;;9.48;3.67;;;;;;;;;;5025314;28;20415;-88
2022/01/08 07:07:44;;;;;;;10.07;2.78;;;;;;;;;;5020953;28;20414;-83
2022/01/08 07:10:10;;;;;;;5.18;2.83;;;;;;;;;;5017236;28;20672;-86
2022/01/08 07:12:36;;;;;;;9.23;2.85;;;;;;;;;;4995004;28;20056;-88
2022/01/08 07:15:02;;;;;;;4.13;3.00;;;;;;;;;;5025972;28;20391;-80
2022/01/08 07:17:28;;;;;;;12.35;4.05;;;;;;;;;;5008871;28;20045;-84
2022/01/08 07:19:54;;;;;;;8.98;3.50;;;;;;;;;;5019202;28;20107;-82
2022/01/08 07:22:20;;;;;;;10.88;4.15;;;;;;;;;;5005822;28;20152;-86
2022/01/08 07:24:46;;;;;;;14.27;4.60;;;;;;;;;;5006902;28;20049;-88
2022/01/08 07:27:13;;;;;;;13.98;6.05;;;;;;;;;;5024522;28;20053;-83
2022/01/08 07:29:39;;;;;;;14.18;4.85;;;;;;;;;;5020966;28;20057;-88
2022/01/08 07:32:05;;;;;;;23.65;6.30;;;;;;;;;;4989038;28;20045;-83
2022/01/08 07:34:31;;;;;;;11.00;5.55;;;;;;;;;;5008985;28;20033;-85
2022/01/08 07:37:00;;;;;;;15.98;5.93;;;;;;;;;;5018052;28;20045;-86
2022/01/08 07:39:26;;;;;;;14.07;4.25;;;;;;;;;;5023917;28;20044;-87
2022/01/08 07:41:53;;;;;;;10.77;5.20;;;;;;;;;;4999582;28;20088;-87
2022/01/08 07:44:19;;;;;;;18.60;6.72;;;;;;;;;;5023533;28;20045;-88
2022/01/08 07:46:45;;;;;;;15.95;6.90;;;;;;;;;;5020387;28;20045;-87
2022/01/08 07:49:11;;;;;;;15.20;7.20;;;;;;;;;;5024059;28;20045;-85
2022/01/08 07:51:37;;;;;;;15.70;6.15;;;;;;;;;;5023253;28;20041;-85
2022/01/08 07:54:03;;;;;;;21.27;7.43;;;;;;;;;;5023350;28;20085;-86
2022/01/08 07:56:29;;;;;;;23.67;6.57;;;;;;;;;;5014084;28;20046;-86
2022/01/08 07:58:55;;;;;;;18.63;7.93;;;;;;;;;;5022659;28;20053;-86
2022/01/08 08:01:21;;;;;;;19.25;8.77;;;;;;;;;;5023323;28;20151;-86
2022/01/08 08:03:48;;;;;;;18.95;7.32;;;;;;;;;;5023536;28;20045;-85
2022/01/08 08:06:14;;;;;;;13.63;6.72;;;;;;;;;;5020957;28;20091;-85
2022/01/08 08:08:40;;;;;;;21.85;8.40;;;;;;;;;;5022981;28;20049;-81
2022/01/08 08:11:06;;;;;;;22.27;7.80;;;;;;;;;;5023431;28;20048;-83
2022/01/08 08:13:32;;;;;;;13.88;6.13;;;;;;;;;;5005550;28;20048;-85
2022/01/08 08:15:58;;;;;;;23.05;8.13;;;;;;;;;;5004373;28;20144;-83
2022/01/08 08:18:24;;;;;;;17.48;8.40;;;;;;;;;;5026460;28;20499;-81
2022/01/08 08:20:50;;;;;;;19.00;8.48;;;;;;;;;;5024583;28;20077;-87
2022/01/08 08:23:16;;;;;;;20.88;7.53;;;;;;;;;;5027839;28;20069;-84
2022/01/08 08:25:43;;;;;;;21.27;8.25;;;;;;;;;;5026464;28;20053;-86
2022/01/08 08:28:09;;;;;;;24.08;9.15;;;;;;;;;;5009431;28;20100;-86
2022/01/08 08:30:35;;;;;;;18.75;8.32;;;;;;;;;;5026756;28;20042;-89
2022/01/08 08:33:01;;;;;;;20.70;7.63;;;;;;;;;;5026005;28;20045;-87
2022/01/08 08:35:27;;;;;;;19.02;7.93;;;;;;;;;;5026037;28;20128;-89
2022/01/08 08:37:53;;;;;;;14.65;7.95;;;;;;;;;;5025890;28;20049;-84
2022/01/08 08:40:19;;;;;;;15.90;7.35;;;;;;;;;;5026056;28;20457;-86
2022/01/08 08:42:45;;;;;;;23.48;9.05;;;;;;;;;;5026910;28;20472;-88
2022/01/08 08:45:12;;;;;;;15.30;8.18;;;;;;;;;;5029060;28;20095;-87
2022/01/08 08:47:39;;;;;;;21.92;7.45;;;;;;;;;;5027122;28;20124;-79
2022/01/08 08:50:06;;;;;;;18.50;7.32;;;;;;;;;;5009616;28;20100;-81
2022/01/08 08:52:33;;;;;;;12.20;6.57;;;;;;;;;;5025505;28;20045;-80
2022/01/08 08:54:59;;;;;;;17.40;7.22;;;;;;;;;;5024715;28;20088;-81
2022/01/08 08:57:26;;;;;;;20.52;7.43;;;;;;;;;;5009787;28;20048;-81
2022/01/08 08:59:52;;;;;;;15.68;7.05;;;;;;;;;;5009050;28;20048;-79
2022/01/08 09:02:19;;;;;;;14.18;5.78;;;;;;;;;;5026466;28;20479;-81
2022/01/08 09:04:45;;;;;;;18.02;6.28;;;;;;;;;;5026922;28;20378;-79
2022/01/08 09:07:11;;;;;;;20.10;7.25;;;;;;;;;;5022813;28;20049;-80
2022/01/08 09:09:37;;;;;;;10.73;5.43;;;;;;;;;;5024647;28;20046;-80
2022/01/08 09:12:04;;;;;;;12.35;5.93;;;;;;;;;;5022144;28;20370;-79
2022/01/08 09:14:30;;;;;;;15.52;6.38;;;;;;;;;;5021629;28;20042;-83
2022/01/08 09:16:57;;;;;;;8.13;5.10;;;;;;;;;;5025357;28;20116;-85
2022/01/08 09:19:25;;;;;;;12.20;5.78;;;;;;;;;;4991850;28;20115;-82
2022/01/08 09:21:52;;;;;;;17.35;6.35;;;;;;;;;;5019784;28;20057;-82
2022/01/08 09:24:18;;;;;;;15.88;6.15;;;;;;;;;;5006612;28;20080;-82
2022/01/08 09:26:45;;;;;;;16.13;5.18;;;;;;;;;;5023081;28;20038;-88
2022/01/08 09:29:12;;;;;;;17.38;6.13;;;;;;;;;;5023916;28;20132;-84
2022/01/08 09:31:38;;;;;;;19.85;6.47;;;;;;;;;;5027013;28;20060;-82
2022/01/08 09:34:04;;;;;;;15.05;5.25;;;;;;;;;;5025352;28;20037;-86
2022/01/08 09:36:31;;;;;;;11.13;5.03;;;;;;;;;;5027262;28;20077;-88
2022/01/08 09:38:57;;;;;;;14.73;5.68;;;;;;;;;;5019825;28;20444;-84
2022/01/08 09:41:23;;;;;;;18.23;6.43;;;;;;;;;;5021938;28;20033;-89
2022/01/08 09:43:49;;;;;;;16.35;5.82;;;;;;;;;;5023066;28;20415;-91
2022/01/08 09:46:16;;;;;;;17.80;5.53;;;;;;;;;;5023028;28;20132;-91
2022/01/08 09:48:45;;;;;;;19.80;6.47;;;;;;;;;;5025843;28;20038;-85
2022/01/08 09:51:11;;;;;;;9.25;5.57;;;;;;;;;;5025968;28;20033;-85
2022/01/08 09:53:37;;;;;;;16.60;5.45;;;;;;;;;;5010261;28;20052;-87
2022/01/08 09:56:04;;;;;;;14.02;6.13;;;;;;;;;;5024872;28;20029;-85
2022/01/08 09:58:30;;;;;;;14.93;5.80;;;;;;;;;;4989863;28;20038;-87
2022/01/08 10:00:56;;;;;;;12.95;4.72;;;;;;;;;;5021752;28;20056;-87
2022/01/08 10:03:27;;;;;;;14.93;5.78;;;;;;;;;;5019738;28;20163;-79
2022/01/08 10:05:54;;;;;;;14.07;5.82;;;;;;;;;;5023165;28;20041;-79
2022/01/08 10:08:24;;;;;;;16.38;5.82;;;;;;;;;;5022043;28;20033;-79
2022/01/08 10:11:04;;;;;;;19.15;5.55;;;;;;;;;;5024566;28;21197;-79
2022/01/08 10:13:32;;;;;;;14.30;4.60;;;;;;;;;;5024673;28;20478;-79
2022/01/08 10:18:45;;;;;;;12.02;4.25;;;;;;;;;;5004665;28;20126;-78
2022/01/08 10:21:15;;;;;;;12.10;5.50;;;;;;;;;;5023486;28;20053;-79
2022/01/08 10:23:46;;;;;;;12.40;4.88;;;;;;;;;;5023227;28;20079;-79
2022/01/08 10:26:16;;;;;;;16.55;5.10;;;;;;;;;;5005515;28;20456;-79
2022/01/08 10:28:45;;;;;;;11.82;3.92;;;;;;;;;;5022104;28;20137;-80
2022/01/08 10:31:22;;;;;;;12.38;4.70;;;;;;;;;;5024844;28;20103;-79
2022/01/08 10:33:50;;;;;;;8.85;3.75;;;;;;;;;;5007831;28;20053;-81
2022/01/08 10:36:36;;;;;;;9.73;4.25;;;;;;;;;;5026097;28;20451;-78
2022/01/08 10:39:06;;;;;;;12.27;3.90;;;;;;;;;;5026270;28;20037;-79
2022/01/08 10:41:32;;;;;;;13.32;4.28;;;;;;;;;;5026989;28;20068;-80
2022/01/08 10:44:09;;;;;;;15.27;4.75;;;;;;;;;;5024669;28;20042;-79
2022/01/08 10:46:36;;;;;;;12.52;4.57;;;;;;;;;;4993641;28;20041;-80
2022/01/08 10:49:02;;;;;;;17.58;4.00;;;;;;;;;;5026561;28;20033;-80
2022/01/08 10:51:34;;;;;;;11.13;4.68;;;;;;;;;;5028588;28;20037;-80
2022/01/08 10:54:00;;;;;;;15.25;4.70;;;;;;;;;;5028646;28;20422;-79
2022/01/08 10:56:32;;;;;;;14.80;4.70;;;;;;;;;;5026619;28;20030;-80
2022/01/08 10:58:59;;;;;;;8.90;4.07;;;;;;;;;;5028839;28;20054;-79
2022/01/08 11:01:44;;;;;;;15.38;5.47;;;;;;;;;;5027605;28;20089;-80
2022/01/08 11:04:12;;;;;;;13.82;5.10;;;;;;;;;;5027639;28;20049;-79
2022/01/08 11:06:58;;;;;;;8.95;4.28;;;;;;;;;;5027812;28;20049;-79
2022/01/08 11:09:24;;;;;;;15.25;5.38;;;;;;;;;;5026452;28;20436;-79
2022/01/08 11:11:51;;;;;;;14.25;5.13;;;;;;;;;;5028018;28;20041;-80
2022/01/08 11:14:44;;;;;;;13.75;5.93;;;;;;;;;;5026694;28;20568;-80
2022/01/08 11:17:08;;;;;;;17.23;4.88;;;;;;;;;;5025423;28;20072;-79
2022/01/08 11:19:35;;;;;;;17.45;6.15;;;;;;;;;;5025425;28;20107;-79
2022/01/08 11:22:02;;;;;;;12.45;5.28;;;;;;;;;;5027121;28;20038;-80
2022/01/08 11:24:29;;;;;;;12.38;5.47;;;;;;;;;;5027771;28;20037;-80
2022/01/08 11:26:56;;;;;;;13.38;5.25;;;;;;;;;;5026481;28;20068;-79
2022/01/08 11:29:25;;;;;;;11.65;5.13;;;;;;;;;;5028065;28;20133;-79
2022/01/08 11:31:55;;;;;;;16.80;5.70;;;;;;;;;;5026226;28;20033;-79
2022/01/08 11:34:24;;;;;;;8.85;5.22;;;;;;;;;;5028434;28;20080;-80
2022/01/08 11:36:51;;;;;;;13.98;5.82;;;;;;;;;;5029105;28;20064;-80
2022/01/08 11:39:18;;;;;;;8.32;5.05;;;;;;;;;;5005569;28;20048;-79
2022/01/08 11:41:45;;;;;;;19.98;5.55;;;;;;;;;;5027833;28;20489;-82
2022/01/08 11:44:12;;;;;;;16.58;5.78;;;;;;;;;;5026525;28;20034;-79
2022/01/08 11:46:39;;;;;;;9.82;4.85;;;;;;;;;;5028105;28;20061;-82
2022/01/08 11:49:05;;;;;;;12.15;5.50;;;;;;;;;;5027065;28;20048;-81
2022/01/08 11:51:33;;;;;;;9.15;6.20;;;;;;;;;;5029939;28;20157;-81
2022/01/08 11:53:59;;;;;;;15.35;5.95;;;;;;;;;;5028471;28;20057;-82
2022/01/08 11:56:25;;;;;;;9.20;6.18;;;;;;;;;;5028409;28;20103;-81
2022/01/08 11:59:02;;;;;;;11.95;5.78;;;;;;;;;;5028575;28;20464;-80
2022/01/08 12:01:28;;;;;;;14.13;4.88;;;;;;;;;;5026353;28;20368;-81
2022/01/08 12:03:55;;;;;;;12.73;6.10;;;;;;;;;;5010873;28;20124;-80
2022/01/08 12:06:22;;;;;;;15.38;6.80;;;;;;;;;;5027757;28;20580;-80
2022/01/08 12:09:00;;;;;;;13.38;5.82;;;;;;;;;;5010327;28;20056;-81
2022/01/08 12:11:31;;;;;;;13.88;7.47;;;;;;;;;;5028420;28;20053;-79
2022/01/08 12:14:08;;;;;;;14.40;7.53;;;;;;;;;;5027887;28;20049;-79
2022/01/08 12:16:37;;;;;;;18.35;8.07;;;;;;;;;;4994196;28;20041;-80
2022/01/08 12:19:04;;;;;;;11.80;8.07;;;;;;;;;;5026135;28;20509;-80
2022/01/08 12:21:37;;;;;;;19.73;7.25;;;;;;;;;;5028717;28;20486;-81
2022/01/08 12:24:21;;;;;;;16.55;9.40;;;;;;;;;;5027293;28;20045;-79
2022/01/08 12:26:47;;;;;;;19.52;8.65;;;;;;;;;;5027655;28;20053;-81
2022/01/08 12:29:33;;;;;;;21.85;9.32;;;;;;;;;;5010676;28;20046;-83
2022/01/08 12:32:18;;;;;;;17.83;8.60;;;;;;;;;;5027522;28;20073;-79
2022/01/08 12:34:48;;;;;;;16.30;8.63;;;;;;;;;;5028070;28;20535;-79
2022/01/08 12:37:15;;;;;;;24.88;9.40;;;;;;;;;;5027208;28;20470;-77
2022/01/08 12:39:44;;;;;;;15.90;9.27;;;;;;;;;;5027645;28;20053;-79
2022/01/08 12:42:19;;;;;;;15.68;9.20;;;;;;;;;;5010824;28;20049;-81
2022/01/08 12:45:04;;;;;;;14.32;9.13;;;;;;;;;;5026979;28;20053;-80
2022/01/08 12:47:44;;;;;;;15.98;10.80;;;;;;;;;;5027966;28;20136;-79
2022/01/08 12:50:17;;;;;;;15.35;9.85;;;;;;;;;;5027697;28;20049;-79
2022/01/08 12:53:22;;;;;;;14.85;9.25;;;;;;;;;;5025117;28;20040;-79
2022/01/08 12:55:51;;;;;;;22.08;10.07;;;;;;;;;;4949710;28;20054;-79
2022/01/08 12:58:23;;;;;;;17.40;10.00;;;;;;;;;;5014288;28;20402;-79
2022/01/08 13:00:52;;;;;;;17.17;9.93;;;;;;;;;;5026771;28;20076;-79
2022/01/08 13:03:32;;;;;;;20.02;10.63;;;;;;;;;;5026349;28;20128;-80
2022/01/08 13:05:59;;;;;;;21.73;11.23;;;;;;;;;;5008891;28;20049;-79
2022/01/08 13:08:27;;;;;;;26.77;12.48;;;;;;;;;;4993701;28;20401;-79
2022/01/08 13:10:56;;;;;;;20.92;12.05;;;;;;;;;;5025148;28;20068;-79
2022/01/08 13:13:23;;;;;;;21.35;12.05;;;;;;;;;;5026654;28;20512;-79
2022/01/08 13:15:49;;;;;;;23.98;11.98;;;;;;;;;;5024062;28;20106;-79
2022/01/08 13:18:17;;;;;;;19.88;12.30;;;;;;;;;;4964776;28;20046;-79
2022/01/08 13:20:43;;;;;;;26.05;13.00;;;;;;;;;;5022452;28;20393;-80
2022/01/08 13:23:14;;;;;;;19.80;13.75;;;;;;;;;;5006195;28;20033;-80
2022/01/08 13:25:40;;;;;;;19.65;12.07;;;;;;;;;;5026000;28;20531;-78
2022/01/08 13:28:06;;;;;;;25.88;13.55;;;;;;;;;;5025067;28;20050;-78
2022/01/08 13:30:33;;;;;;;18.48;12.23;;;;;;;;;;5027124;28;20041;-79
2022/01/08 13:33:02;;;;;;;19.80;11.73;;;;;;;;;;5007899;28;20146;-79
2022/01/08 13:35:29;;;;;;;22.70;13.48;;;;;;;;;;5008902;28;20397;-79
2022/01/08 13:37:55;;;;;;;30.05;15.63;;;;;;;;;;5026432;28;20037;-78
2022/01/08 13:40:25;;;;;;;24.83;14.35;;;;;;;;;;5025969;28;20402;-79
2022/01/08 13:42:53;;;;;;;28.67;14.70;;;;;;;;;;5026309;28;20401;-79
2022/01/08 13:45:23;;;;;;;22.73;15.38;;;;;;;;;;5024387;28;20075;-79
2022/01/08 13:47:53;;;;;;;20.00;15.40;;;;;;;;;;5025367;28;20166;-79
2022/01/08 13:50:23;;;;;;;23.88;14.98;;;;;;;;;;4988240;28;20029;-79
2022/01/08 13:52:53;;;;;;;24.25;16.20;;;;;;;;;;5026846;28;20456;-78
2022/01/08 13:55:21;;;;;;;23.45;14.38;;;;;;;;;;5025410;28;20140;-79
2022/01/08 13:57:52;;;;;;;22.85;14.38;;;;;;;;;;5024566;28;20187;-78
2022/01/08 14:00:21;;;;;;;25.25;14.82;;;;;;;;;;4991775;28;20041;-78
2022/01/08 14:02:47;;;;;;;20.40;15.63;;;;;;;;;;5024566;28;20059;-78
2022/01/08 14:05:13;;;;;;;28.58;16.90;;;;;;;;;;5007878;28;20099;-78
2022/01/08 14:07:41;;;;;;;22.08;15.82;;;;;;;;;;5024097;28;20042;-78
2022/01/08 14:10:08;;;;;;;24.60;17.60;;;;;;;;;;5025780;28;20484;-77
2022/01/08 14:12:34;;;;;;;24.77;18.20;;;;;;;;;;5025421;28;20085;-77
2022/01/08 14:15:05;;;;;;;24.58;19.95;;;;;;;;;;5024335;28;20564;-77
2022/01/08 14:17:32;;;;;;;30.27;19.98;;;;;;;;;;5025981;28;20050;-77
2022/01/08 14:19:59;;;;;;;26.73;20.10;;;;;;;;;;5021913;28;20058;-76
2022/01/08 14:22:27;;;;;;;24.48;18.00;;;;;;;;;;4997117;28;20050;-78
2022/01/08 14:24:53;;;;;;;31.30;21.65;;;;;;;;;;5005342;28;20046;-78
2022/01/08 14:27:22;;;;;;;27.02;18.42;;;;;;;;;;5006639;28;20486;-79
2022/01/08 14:30:05;;;;;;;28.50;23.08;;;;;;;;;;5009657;28;20095;-79
2022/01/08 14:32:32;;;;;;;35.65;23.48;;;;;;;;;;5025207;28;20386;-78
2022/01/08 14:35:01;;;;;;;30.20;22.63;;;;;;;;;;5026464;28;20060;-79
2022/01/08 14:37:37;;;;;;;34.95;20.80;;;;;;;;;;5025288;28;20072;-78
2022/01/08 14:40:22;;;;;;;34.28;22.92;;;;;;;;;;5025422;28;20068;-78
2022/01/08 14:43:09;;;;;;;38.10;24.83;;;;;;;;;;5025622;28;20041;-80
2022/01/08 14:45:45;;;;;;;30.92;21.08;;;;;;;;;;5023808;28;20058;-77
2022/01/08 14:48:30;;;;;;;38.85;26.88;;;;;;;;;;5009045;28;20508;-78
2022/01/08 14:50:56;;;;;;;47.28;30.20;;;;;;;;;;5006951;28;20190;-78
2022/01/08 14:53:23;;;;;;;39.22;23.52;;;;;;;;;;4993158;28;20057;-78
2022/01/08 14:55:49;;;;;;;39.30;26.98;;;;;;;;;;5025021;28;20450;-79
2022/01/08 14:58:15;;;;;;;38.40;25.95;;;;;;;;;;5026155;28;20077;-79
2022/01/08 15:00:42;;;;;;;36.55;26.10;;;;;;;;;;5026607;28;20075;-80
2022/01/08 15:03:08;;;;;;;40.28;26.55;;;;;;;;;;5011944;28;20117;-78
2022/01/08 15:05:34;;;;;;;36.05;24.00;;;;;;;;;;5026850;28;20498;-77